Portada
METAR-TAF:

METAR-TAF

Aeroports :

Aeroport de Bèrgam-Orio al Serio

Bèrgam, Itàlia

latitud: 45-40N, longitud: 009-42E, altitud: 238 m

Observació

L'informe es va fer fa 26 minuts, a les 16:50 UTC
Vent 11 kt del Oest/Nord-Oest amb ràfegues de 21 kt
Temperatura 11°C
Humitat 10%
Pressió 999 hPa
Visibilitat 10 km o més
sense núvols per sota de 1500 mi sense presència de cumulonimbus.

METAR: LIME 261650Z 30011G21KT CAVOK 11/M19 Q0999 NOSIG

Hora: 18:16 (17:16 UTC)

Pronòstic

L'informe es va fer fa 4 hores i 32 minuts, a les 12:44 UTC
Pronòstic vàlid del 26 a les 12 UTC al 27 a les 12 UTC
Vent 10 kt del Nord-Oest
Visibilitat 10 km o més
sense núvols per sota de 1500 mi sense presència de cumulonimbus.
Temporalment
l' 26 a les 12 UTC al 26 a les 20 UTC
Vent 18 kt del Nord-Oest amb ràfegues de 35 kt

TAF: LIME 261244Z 2612/2712 31010KT CAVOK TEMPO 2612/2620 31018G35KT

Observacions i pronòstics meteorològics de més de 4000 aeroports (METAR i TAF).

Les estacions disponibles són els punts grocs i vermells al mapa.

Posi el ratolí al punt desitjat per veure el nom de l'estació.

Feu clic per veure les observacions i els pronòstics meteorològics.

Per canviar el mapa: feu clic els botons verds amb una creu de color negre per apropar; al botó verd amb un guió per allunyar la imatge; o en les fletxes verdes per a mapes adjacents.


METAR-TAF: